RJOY weather

Yao Airport
Yao, Ōsaka Prefecture, Japan

Public forecast

Using degrees Celsius for public forecast. Weather courtesy of forecast.io.

METAR (pilot weather report)

Report is more than 6 hours old.

Retrieved 2019/07/16 10:00 UTC (6 hours ago):

RJOY 161000Z 24003KT 140V290 9999 FEW030 SCT040 BKN/// 28/23 Q1010

TAF (pilot weather forecast)

Closest forecast is Osaka International Airport, 14.0 nm (25.9 km) NW. Retrieved 2019/07/16 12:30 UTC (4 hours ago):

TAF TAF RJOO 161106Z 1612/1718 20005KT 9999 FEW015 SCT025 BKN035 BECMG 1612/1614 32004KT BECMG 1622/1700 07006KT BECMG 1706/1709 24006KT